sensor_id;sensor_type;location;lat;lon;timestamp;temperature;humidity
48734;DHT22;34530;52.084;5.146;2022-09-16T00:01:16;22.10;52.90
48734;DHT22;34530;52.084;5.146;2022-09-16T00:03:42;22.10;53.00
48734;DHT22;34530;52.084;5.146;2022-09-16T00:06:20;22.10;53.00
48734;DHT22;34530;52.084;5.146;2022-09-16T00:08:47;22.10;53.00
48734;DHT22;34530;52.084;5.146;2022-09-16T00:11:13;22.10;53.00
48734;DHT22;34530;52.084;5.146;2022-09-16T00:13:38;22.10;53.00
48734;DHT22;34530;52.084;5.146;2022-09-16T00:16:12;22.10;53.10
48734;DHT22;34530;52.084;5.146;2022-09-16T00:18:40;22.10;53.10
48734;DHT22;34530;52.084;5.146;2022-09-16T00:21:07;22.10;53.20
48734;DHT22;34530;52.084;5.146;2022-09-16T00:23:34;22.10;53.20
48734;DHT22;34530;52.084;5.146;2022-09-16T00:25:59;22.10;53.20
48734;DHT22;34530;52.084;5.146;2022-09-16T00:28:25;22.10;53.20
48734;DHT22;34530;52.084;5.146;2022-09-16T00:30:50;22.00;53.20
48734;DHT22;34530;52.084;5.146;2022-09-16T00:33:17;22.00;53.30
48734;DHT22;34530;52.084;5.146;2022-09-16T00:35:43;22.00;53.30
48734;DHT22;34530;52.084;5.146;2022-09-16T00:38:09;22.00;53.30
48734;DHT22;34530;52.084;5.146;2022-09-16T00:40:46;22.00;53.30
48734;DHT22;34530;52.084;5.146;2022-09-16T00:43:13;22.00;53.30
48734;DHT22;34530;52.084;5.146;2022-09-16T00:45:40;22.00;53.30
48734;DHT22;34530;52.084;5.146;2022-09-16T00:48:08;22.00;53.40
48734;DHT22;34530;52.084;5.146;2022-09-16T00:50:42;22.00;53.50
48734;DHT22;34530;52.084;5.146;2022-09-16T00:53:19;22.00;53.50
48734;DHT22;34530;52.084;5.146;2022-09-16T00:55:47;22.00;53.50
48734;DHT22;34530;52.084;5.146;2022-09-16T01:00:45;22.00;53.50
48734;DHT22;34530;52.084;5.146;2022-09-16T01:03:10;22.00;54.20
48734;DHT22;34530;52.084;5.146;2022-09-16T01:05:36;21.90;53.60
48734;DHT22;34530;52.084;5.146;2022-09-16T01:08:03;21.90;53.60
48734;DHT22;34530;52.084;5.146;2022-09-16T01:10:30;21.90;53.60
48734;DHT22;34530;52.084;5.146;2022-09-16T01:13:00;21.90;53.60
48734;DHT22;34530;52.084;5.146;2022-09-16T01:18:52;21.90;53.50
48734;DHT22;34530;52.084;5.146;2022-09-16T01:21:54;21.90;53.60
48734;DHT22;34530;52.084;5.146;2022-09-16T01:24:39;21.90;53.60
48734;DHT22;34530;52.084;5.146;2022-09-16T01:32:46;21.90;53.80
48734;DHT22;34530;52.084;5.146;2022-09-16T01:41:06;21.80;53.70
48734;DHT22;34530;52.084;5.146;2022-09-16T01:46:37;21.80;53.90
48734;DHT22;34530;52.084;5.146;2022-09-16T01:49:37;21.80;53.80
48734;DHT22;34530;52.084;5.146;2022-09-16T01:55:15;21.80;53.90
48734;DHT22;34530;52.084;5.146;2022-09-16T02:00:11;21.80;54.00
48734;DHT22;34530;52.084;5.146;2022-09-16T02:02:53;21.80;54.00
48734;DHT22;34530;52.084;5.146;2022-09-16T02:05:28;21.80;53.90
48734;DHT22;34530;52.084;5.146;2022-09-16T02:08:06;21.80;54.20
48734;DHT22;34530;52.084;5.146;2022-09-16T02:10:42;21.80;54.00
48734;DHT22;34530;52.084;5.146;2022-09-16T02:13:38;21.70;54.00
48734;DHT22;34530;52.084;5.146;2022-09-16T02:16:24;21.80;54.00
48734;DHT22;34530;52.084;5.146;2022-09-16T02:18:53;21.70;54.00
48734;DHT22;34530;52.084;5.146;2022-09-16T02:21:21;21.70;54.10
48734;DHT22;34530;52.084;5.146;2022-09-16T02:23:54;21.70;54.10
48734;DHT22;34530;52.084;5.146;2022-09-16T02:26:25;21.70;54.10
48734;DHT22;34530;52.084;5.146;2022-09-16T02:28:52;21.70;54.10
48734;DHT22;34530;52.084;5.146;2022-09-16T02:31:26;21.70;54.10
48734;DHT22;34530;52.084;5.146;2022-09-16T02:34:00;21.70;54.10
48734;DHT22;34530;52.084;5.146;2022-09-16T02:36:27;21.70;54.10
48734;DHT22;34530;52.084;5.146;2022-09-16T02:39:17;21.70;54.20
48734;DHT22;34530;52.084;5.146;2022-09-16T02:41:45;21.70;54.10
48734;DHT22;34530;52.084;5.146;2022-09-16T02:44:12;21.70;54.20
48734;DHT22;34530;52.084;5.146;2022-09-16T02:58:05;21.60;54.30
48734;DHT22;34530;52.084;5.146;2022-09-16T03:00:34;21.60;54.40
48734;DHT22;34530;52.084;5.146;2022-09-16T03:03:01;21.60;54.40
48734;DHT22;34530;52.084;5.146;2022-09-16T03:05:28;21.60;54.50
48734;DHT22;34530;52.084;5.146;2022-09-16T03:07:54;21.60;54.50
48734;DHT22;34530;52.084;5.146;2022-09-16T03:10:23;21.60;54.50
48734;DHT22;34530;52.084;5.146;2022-09-16T03:13:04;21.60;54.60
48734;DHT22;34530;52.084;5.146;2022-09-16T03:21:14;21.60;55.20
48734;DHT22;34530;52.084;5.146;2022-09-16T03:26:46;21.60;54.70
48734;DHT22;34530;52.084;5.146;2022-09-16T03:32:15;21.50;54.70
48734;DHT22;34530;52.084;5.146;2022-09-16T03:34:51;21.50;54.80
48734;DHT22;34530;52.084;5.146;2022-09-16T03:37:18;21.50;54.80
48734;DHT22;34530;52.084;5.146;2022-09-16T03:39:55;21.50;54.80
48734;DHT22;34530;52.084;5.146;2022-09-16T03:42:22;21.50;54.80
48734;DHT22;34530;52.084;5.146;2022-09-16T03:44:48;21.50;54.90
48734;DHT22;34530;52.084;5.146;2022-09-16T03:47:14;21.50;54.90
48734;DHT22;34530;52.084;5.146;2022-09-16T03:49:40;21.50;54.90
48734;DHT22;34530;52.084;5.146;2022-09-16T03:52:06;21.50;54.90
48734;DHT22;34530;52.084;5.146;2022-09-16T03:54:33;21.50;54.90
48734;DHT22;34530;52.084;5.146;2022-09-16T03:56:59;21.50;55.00
48734;DHT22;34530;52.084;5.146;2022-09-16T03:59:25;21.50;55.00
48734;DHT22;34530;52.084;5.146;2022-09-16T04:01:51;21.50;55.00
48734;DHT22;34530;52.084;5.146;2022-09-16T04:04:17;21.50;54.90
48734;DHT22;34530;52.084;5.146;2022-09-16T04:06:43;21.50;55.00
48734;DHT22;34530;52.084;5.146;2022-09-16T04:09:12;21.50;55.00
48734;DHT22;34530;52.084;5.146;2022-09-16T04:11:39;21.40;55.00
48734;DHT22;34530;52.084;5.146;2022-09-16T04:14:05;21.40;55.00
48734;DHT22;34530;52.084;5.146;2022-09-16T04:16:31;21.40;55.00
48734;DHT22;34530;52.084;5.146;2022-09-16T04:18:57;21.40;55.00
48734;DHT22;34530;52.084;5.146;2022-09-16T04:21:23;21.40;55.10
48734;DHT22;34530;52.084;5.146;2022-09-16T04:23:49;21.40;55.10
48734;DHT22;34530;52.084;5.146;2022-09-16T04:26:16;21.40;55.10
48734;DHT22;34530;52.084;5.146;2022-09-16T04:28:42;21.40;55.10
48734;DHT22;34530;52.084;5.146;2022-09-16T04:31:12;21.40;55.10
48734;DHT22;34530;52.084;5.146;2022-09-16T04:33:38;21.40;55.20
48734;DHT22;34530;52.084;5.146;2022-09-16T04:36:24;21.40;55.20
48734;DHT22;34530;52.084;5.146;2022-09-16T04:38:50;21.40;55.80
48734;DHT22;34530;52.084;5.146;2022-09-16T04:41:19;21.40;55.30
48734;DHT22;34530;52.084;5.146;2022-09-16T04:43:45;21.40;55.30
48734;DHT22;34530;52.084;5.146;2022-09-16T04:46:11;21.30;55.20
48734;DHT22;34530;52.084;5.146;2022-09-16T04:48:38;21.30;55.30
48734;DHT22;34530;52.084;5.146;2022-09-16T04:51:09;21.30;55.30
48734;DHT22;34530;52.084;5.146;2022-09-16T04:53:36;21.30;55.10
48734;DHT22;34530;52.084;5.146;2022-09-16T04:56:04;21.30;55.20
48734;DHT22;34530;52.084;5.146;2022-09-16T04:58:30;21.30;55.30
48734;DHT22;34530;52.084;5.146;2022-09-16T05:00:55;21.30;55.20
48734;DHT22;34530;52.084;5.146;2022-09-16T05:03:21;21.30;55.30
48734;DHT22;34530;52.084;5.146;2022-09-16T05:05:46;21.30;55.20
48734;DHT22;34530;52.084;5.146;2022-09-16T05:08:12;21.30;55.20
48734;DHT22;34530;52.084;5.146;2022-09-16T05:10:37;21.30;55.20
48734;DHT22;34530;52.084;5.146;2022-09-16T05:13:03;21.30;55.20
48734;DHT22;34530;52.084;5.146;2022-09-16T05:15:29;21.30;55.20
48734;DHT22;34530;52.084;5.146;2022-09-16T05:17:54;21.20;55.10
48734;DHT22;34530;52.084;5.146;2022-09-16T05:20:20;21.20;55.20
48734;DHT22;34530;52.084;5.146;2022-09-16T05:22:48;21.30;55.30
48734;DHT22;34530;52.084;5.146;2022-09-16T05:25:15;21.20;55.20
48734;DHT22;34530;52.084;5.146;2022-09-16T05:27:41;21.20;55.20
48734;DHT22;34530;52.084;5.146;2022-09-16T05:30:07;21.20;55.20
48734;DHT22;34530;52.084;5.146;2022-09-16T05:32:32;21.20;55.20
48734;DHT22;34530;52.084;5.146;2022-09-16T05:34:58;21.20;55.20
48734;DHT22;34530;52.084;5.146;2022-09-16T05:37:23;21.20;55.20
48734;DHT22;34530;52.084;5.146;2022-09-16T05:39:49;21.20;55.20
48734;DHT22;34530;52.084;5.146;2022-09-16T05:42:15;21.20;55.20
48734;DHT22;34530;52.084;5.146;2022-09-16T05:44:40;21.20;55.20
48734;DHT22;34530;52.084;5.146;2022-09-16T05:47:06;21.20;55.20
48734;DHT22;34530;52.084;5.146;2022-09-16T05:49:31;21.20;55.20
48734;DHT22;34530;52.084;5.146;2022-09-16T05:51:57;21.20;55.80
48734;DHT22;34530;52.084;5.146;2022-09-16T05:54:22;21.20;55.20
48734;DHT22;34530;52.084;5.146;2022-09-16T05:56:50;21.10;55.10
48734;DHT22;34530;52.084;5.146;2022-09-16T05:59:16;21.10;55.10
48734;DHT22;34530;52.084;5.146;2022-09-16T06:01:42;21.10;55.10
48734;DHT22;34530;52.084;5.146;2022-09-16T06:04:13;21.20;55.10
48734;DHT22;34530;52.084;5.146;2022-09-16T06:06:40;21.10;55.00
48734;DHT22;34530;52.084;5.146;2022-09-16T06:09:10;21.20;55.00
48734;DHT22;34530;52.084;5.146;2022-09-16T06:11:40;21.20;55.00
48734;DHT22;34530;52.084;5.146;2022-09-16T06:14:06;21.20;55.00
48734;DHT22;34530;52.084;5.146;2022-09-16T06:16:32;21.20;55.00
48734;DHT22;34530;52.084;5.146;2022-09-16T06:19:00;21.10;55.00
48734;DHT22;34530;52.084;5.146;2022-09-16T06:21:26;21.10;55.00
48734;DHT22;34530;52.084;5.146;2022-09-16T06:23:52;21.20;55.00
48734;DHT22;34530;52.084;5.146;2022-09-16T06:26:20;21.10;54.90
48734;DHT22;34530;52.084;5.146;2022-09-16T06:28:47;21.10;55.00
48734;DHT22;34530;52.084;5.146;2022-09-16T06:31:19;21.10;55.00
48734;DHT22;34530;52.084;5.146;2022-09-16T06:33:45;21.10;55.00
48734;DHT22;34530;52.084;5.146;2022-09-16T06:36:16;21.10;55.00
48734;DHT22;34530;52.084;5.146;2022-09-16T06:38:42;21.10;55.00
48734;DHT22;34530;52.084;5.146;2022-09-16T06:41:10;21.10;55.00
48734;DHT22;34530;52.084;5.146;2022-09-16T06:43:36;21.10;55.00
48734;DHT22;34530;52.084;5.146;2022-09-16T06:46:05;21.10;55.00
48734;DHT22;34530;52.084;5.146;2022-09-16T06:48:34;21.10;55.00
48734;DHT22;34530;52.084;5.146;2022-09-16T06:51:05;21.10;55.00
48734;DHT22;34530;52.084;5.146;2022-09-16T06:53:32;21.10;55.00
48734;DHT22;34530;52.084;5.146;2022-09-16T06:56:03;21.10;55.10
48734;DHT22;34530;52.084;5.146;2022-09-16T06:58:32;21.10;55.10
48734;DHT22;34530;52.084;5.146;2022-09-16T07:00:58;21.10;55.20
48734;DHT22;34530;52.084;5.146;2022-09-16T07:03:24;21.00;55.10
48734;DHT22;34530;52.084;5.146;2022-09-16T07:05:57;21.10;55.20
48734;DHT22;34530;52.084;5.146;2022-09-16T07:08:24;21.10;55.20
48734;DHT22;34530;52.084;5.146;2022-09-16T07:11:18;21.00;55.10
48734;DHT22;34530;52.084;5.146;2022-09-16T07:13:45;21.00;55.10
48734;DHT22;34530;52.084;5.146;2022-09-16T07:16:19;21.00;55.10
48734;DHT22;34530;52.084;5.146;2022-09-16T07:18:45;21.00;55.10
48734;DHT22;34530;52.084;5.146;2022-09-16T07:21:16;21.00;55.10
48734;DHT22;34530;52.084;5.146;2022-09-16T07:23:44;21.00;55.10
48734;DHT22;34530;52.084;5.146;2022-09-16T07:26:19;21.00;55.10
48734;DHT22;34530;52.084;5.146;2022-09-16T07:28:46;21.00;55.10
48734;DHT22;34530;52.084;5.146;2022-09-16T07:31:18;21.00;55.00
48734;DHT22;34530;52.084;5.146;2022-09-16T07:33:46;21.00;55.00
48734;DHT22;34530;52.084;5.146;2022-09-16T07:36:15;21.00;55.00
48734;DHT22;34530;52.084;5.146;2022-09-16T07:38:41;21.00;55.00
48734;DHT22;34530;52.084;5.146;2022-09-16T07:41:15;20.90;54.90
48734;DHT22;34530;52.084;5.146;2022-09-16T07:43:42;21.00;55.50
48734;DHT22;34530;52.084;5.146;2022-09-16T07:46:09;20.90;54.90
48734;DHT22;34530;52.084;5.146;2022-09-16T07:48:36;20.90;54.80
48734;DHT22;34530;52.084;5.146;2022-09-16T07:51:07;20.90;54.80
48734;DHT22;34530;52.084;5.146;2022-09-16T07:53:33;21.00;54.80
48734;DHT22;34530;52.084;5.146;2022-09-16T07:56:10;20.90;54.80
48734;DHT22;34530;52.084;5.146;2022-09-16T07:58:38;21.00;54.80
48734;DHT22;34530;52.084;5.146;2022-09-16T08:01:05;20.90;54.70
48734;DHT22;34530;52.084;5.146;2022-09-16T08:03:33;20.90;54.70
48734;DHT22;34530;52.084;5.146;2022-09-16T08:06:10;20.90;54.70
48734;DHT22;34530;52.084;5.146;2022-09-16T08:08:37;20.90;54.60
48734;DHT22;34530;52.084;5.146;2022-09-16T08:11:03;20.90;54.70
48734;DHT22;34530;52.084;5.146;2022-09-16T08:13:30;20.90;54.70
48734;DHT22;34530;52.084;5.146;2022-09-16T08:16:05;20.90;54.70
48734;DHT22;34530;52.084;5.146;2022-09-16T08:18:31;20.90;54.60
48734;DHT22;34530;52.084;5.146;2022-09-16T08:20:57;20.90;54.60
48734;DHT22;34530;52.084;5.146;2022-09-16T08:23:25;20.90;54.70
48734;DHT22;34530;52.084;5.146;2022-09-16T08:25:57;20.80;54.60
48734;DHT22;34530;52.084;5.146;2022-09-16T08:28:23;20.90;54.60
48734;DHT22;34530;52.084;5.146;2022-09-16T08:30:49;20.90;55.20
48734;DHT22;34530;52.084;5.146;2022-09-16T08:33:14;20.80;54.60
48734;DHT22;34530;52.084;5.146;2022-09-16T08:35:45;20.80;54.50
48734;DHT22;34530;52.084;5.146;2022-09-16T08:38:11;20.80;54.50
48734;DHT22;34530;52.084;5.146;2022-09-16T08:40:43;20.80;54.50
48734;DHT22;34530;52.084;5.146;2022-09-16T08:43:18;20.80;54.50
48734;DHT22;34530;52.084;5.146;2022-09-16T08:46:01;20.80;54.50
48734;DHT22;34530;52.084;5.146;2022-09-16T08:48:44;20.80;54.40
48734;DHT22;34530;52.084;5.146;2022-09-16T08:51:16;20.80;54.40
48734;DHT22;34530;52.084;5.146;2022-09-16T08:56:26;20.80;55.00
48734;DHT22;34530;52.084;5.146;2022-09-16T08:58:55;20.80;54.50
48734;DHT22;34530;52.084;5.146;2022-09-16T09:01:38;20.80;54.40
48734;DHT22;34530;52.084;5.146;2022-09-16T09:04:05;20.80;54.40
48734;DHT22;34530;52.084;5.146;2022-09-16T09:12:13;20.80;54.40
48734;DHT22;34530;52.084;5.146;2022-09-16T09:14:47;20.80;54.40
48734;DHT22;34530;52.084;5.146;2022-09-16T09:25:29;20.70;54.40
48734;DHT22;34530;52.084;5.146;2022-09-16T09:31:09;20.70;54.40
48734;DHT22;34530;52.084;5.146;2022-09-16T09:41:53;20.80;54.80
48734;DHT22;34530;52.084;5.146;2022-09-16T09:44:32;20.80;55.00
48734;DHT22;34530;52.084;5.146;2022-09-16T09:47:07;20.80;55.00
48734;DHT22;34530;52.084;5.146;2022-09-16T09:49:40;20.80;55.00
48734;DHT22;34530;52.084;5.146;2022-09-16T09:52:35;20.90;54.90
48734;DHT22;34530;52.084;5.146;2022-09-16T09:55:17;20.90;54.80
48734;DHT22;34530;52.084;5.146;2022-09-16T10:00:23;21.00;54.80
48734;DHT22;34530;52.084;5.146;2022-09-16T10:02:49;20.90;54.70
48734;DHT22;34530;52.084;5.146;2022-09-16T10:05:23;20.90;54.60
48734;DHT22;34530;52.084;5.146;2022-09-16T10:07:55;21.00;54.60
48734;DHT22;34530;52.084;5.146;2022-09-16T10:10:23;21.00;54.50
48734;DHT22;34530;52.084;5.146;2022-09-16T10:12:49;20.90;54.50
48734;DHT22;34530;52.084;5.146;2022-09-16T10:15:28;21.00;54.60
48734;DHT22;34530;52.084;5.146;2022-09-16T10:17:58;21.00;54.50
48734;DHT22;34530;52.084;5.146;2022-09-16T10:23:15;20.90;54.40
48734;DHT22;34530;52.084;5.146;2022-09-16T10:25:44;20.90;54.30
48734;DHT22;34530;52.084;5.146;2022-09-16T10:30:47;20.90;54.40
48734;DHT22;34530;52.084;5.146;2022-09-16T10:35:51;20.90;54.50
48734;DHT22;34530;52.084;5.146;2022-09-16T10:38:21;20.90;54.50
48734;DHT22;34530;52.084;5.146;2022-09-16T10:40:54;20.90;54.60
48734;DHT22;34530;52.084;5.146;2022-09-16T10:43:23;20.90;54.60
48734;DHT22;34530;52.084;5.146;2022-09-16T10:45:51;20.80;54.70
48734;DHT22;34530;52.084;5.146;2022-09-16T10:48:20;20.80;54.70
48734;DHT22;34530;52.084;5.146;2022-09-16T10:53:38;20.80;54.70
48734;DHT22;34530;52.084;5.146;2022-09-16T10:56:29;20.80;54.60
48734;DHT22;34530;52.084;5.146;2022-09-16T10:59:04;20.80;54.60
48734;DHT22;34530;52.084;5.146;2022-09-16T11:01:41;20.80;54.70
48734;DHT22;34530;52.084;5.146;2022-09-16T11:12:58;20.80;54.90
48734;DHT22;34530;52.084;5.146;2022-09-16T11:15:38;20.80;54.90
48734;DHT22;34530;52.084;5.146;2022-09-16T11:21:08;20.90;55.00
48734;DHT22;34530;52.084;5.146;2022-09-16T11:37:58;20.90;55.20
48734;DHT22;34530;52.084;5.146;2022-09-16T11:57:44;20.90;55.40
48734;DHT22;34530;52.084;5.146;2022-09-16T12:00:16;20.90;55.30
48734;DHT22;34530;52.084;5.146;2022-09-16T12:13:32;20.90;55.20
48734;DHT22;34530;52.084;5.146;2022-09-16T12:16:06;20.90;55.20
48734;DHT22;34530;52.084;5.146;2022-09-16T12:18:47;20.90;55.10
48734;DHT22;34530;52.084;5.146;2022-09-16T12:21:26;20.90;55.00
48734;DHT22;34530;52.084;5.146;2022-09-16T12:24:18;20.90;55.00
48734;DHT22;34530;52.084;5.146;2022-09-16T12:27:37;20.90;55.00
48734;DHT22;34530;52.084;5.146;2022-09-16T12:29:59;20.90;55.00
48734;DHT22;34530;52.084;5.146;2022-09-16T12:32:36;20.90;54.80
48734;DHT22;34530;52.084;5.146;2022-09-16T12:35:16;20.90;54.80
48734;DHT22;34530;52.084;5.146;2022-09-16T12:37:45;20.90;54.70
48734;DHT22;34530;52.084;5.146;2022-09-16T12:46:25;20.90;54.60
48734;DHT22;34530;52.084;5.146;2022-09-16T12:54:33;20.90;54.50
48734;DHT22;34530;52.084;5.146;2022-09-16T13:00:03;21.00;54.50
48734;DHT22;34530;52.084;5.146;2022-09-16T13:02:36;20.90;54.50
48734;DHT22;34530;52.084;5.146;2022-09-16T13:07:51;20.90;54.50
48734;DHT22;34530;52.084;5.146;2022-09-16T13:10:30;20.90;54.50
48734;DHT22;34530;52.084;5.146;2022-09-16T13:12:58;21.00;54.60
48734;DHT22;34530;52.084;5.146;2022-09-16T13:15:30;21.00;54.60
48734;DHT22;34530;52.084;5.146;2022-09-16T13:20:52;21.00;54.60
48734;DHT22;34530;52.084;5.146;2022-09-16T13:23:23;21.00;54.70
48734;DHT22;34530;52.084;5.146;2022-09-16T13:25:57;21.00;54.70
48734;DHT22;34530;52.084;5.146;2022-09-16T13:33:41;21.00;54.80
48734;DHT22;34530;52.084;5.146;2022-09-16T13:38:48;21.00;54.90
48734;DHT22;34530;52.084;5.146;2022-09-16T13:44:00;21.00;54.90
48734;DHT22;34530;52.084;5.146;2022-09-16T13:48:58;21.00;55.00
48734;DHT22;34530;52.084;5.146;2022-09-16T13:51:53;21.00;55.00
48734;DHT22;34530;52.084;5.146;2022-09-16T13:54:31;21.00;54.90
48734;DHT22;34530;52.084;5.146;2022-09-16T14:00:06;21.00;55.00
48734;DHT22;34530;52.084;5.146;2022-09-16T14:03:04;21.00;54.90
48734;DHT22;34530;52.084;5.146;2022-09-16T14:11:48;21.00;54.70
48734;DHT22;34530;52.084;5.146;2022-09-16T14:14:22;21.00;55.20
48734;DHT22;34530;52.084;5.146;2022-09-16T14:16:49;21.00;54.50
48734;DHT22;34530;52.084;5.146;2022-09-16T14:21:59;21.00;54.20
48734;DHT22;34530;52.084;5.146;2022-09-16T14:24:34;21.10;54.10
48734;DHT22;34530;52.084;5.146;2022-09-16T14:27:00;21.10;54.10
48734;DHT22;34530;52.084;5.146;2022-09-16T14:29:25;21.10;54.00
48734;DHT22;34530;52.084;5.146;2022-09-16T14:31:53;21.10;53.90
48734;DHT22;34530;52.084;5.146;2022-09-16T14:34:33;21.10;53.80
48734;DHT22;34530;52.084;5.146;2022-09-16T14:37:01;21.10;53.70
48734;DHT22;34530;52.084;5.146;2022-09-16T14:39:27;21.10;53.70
48734;DHT22;34530;52.084;5.146;2022-09-16T14:41:59;21.10;53.70
48734;DHT22;34530;52.084;5.146;2022-09-16T14:44:34;21.10;53.60
48734;DHT22;34530;52.084;5.146;2022-09-16T14:47:28;21.10;53.60
48734;DHT22;34530;52.084;5.146;2022-09-16T14:50:09;21.10;53.60
48734;DHT22;34530;52.084;5.146;2022-09-16T14:52:37;21.10;53.60
48734;DHT22;34530;52.084;5.146;2022-09-16T14:55:18;21.10;53.60
48734;DHT22;34530;52.084;5.146;2022-09-16T14:57:44;21.10;53.50
48734;DHT22;34530;52.084;5.146;2022-09-16T15:00:13;21.10;53.50
48734;DHT22;34530;52.084;5.146;2022-09-16T15:02:59;21.10;53.40
48734;DHT22;34530;52.084;5.146;2022-09-16T15:05:35;21.10;53.90
48734;DHT22;34530;52.084;5.146;2022-09-16T15:08:27;21.10;53.20
48734;DHT22;34530;52.084;5.146;2022-09-16T15:11:01;21.10;53.00
48734;DHT22;34530;52.084;5.146;2022-09-16T15:13:34;21.10;53.00
48734;DHT22;34530;52.084;5.146;2022-09-16T15:18:35;21.10;52.60
48734;DHT22;34530;52.084;5.146;2022-09-16T15:21:20;21.10;52.40
48734;DHT22;34530;52.084;5.146;2022-09-16T15:23:51;21.10;52.20
48734;DHT22;34530;52.084;5.146;2022-09-16T15:26:39;21.10;52.00
48734;DHT22;34530;52.084;5.146;2022-09-16T15:31:44;21.10;51.80
48734;DHT22;34530;52.084;5.146;2022-09-16T15:36:57;21.10;52.10
48734;DHT22;34530;52.084;5.146;2022-09-16T15:39:31;21.10;51.40
48734;DHT22;34530;52.084;5.146;2022-09-16T15:44:52;21.10;51.10
48734;DHT22;34530;52.084;5.146;2022-09-16T15:47:22;21.10;50.90
48734;DHT22;34530;52.084;5.146;2022-09-16T15:49:58;21.10;50.80
48734;DHT22;34530;52.084;5.146;2022-09-16T15:52:24;21.10;50.60
48734;DHT22;34530;52.084;5.146;2022-09-16T15:54:58;21.10;50.50
48734;DHT22;34530;52.084;5.146;2022-09-16T15:57:31;21.10;50.40
48734;DHT22;34530;52.084;5.146;2022-09-16T16:00:03;21.10;50.40
48734;DHT22;34530;52.084;5.146;2022-09-16T16:05:10;21.10;50.30
48734;DHT22;34530;52.084;5.146;2022-09-16T16:08:00;21.10;50.30
48734;DHT22;34530;52.084;5.146;2022-09-16T16:10:29;21.10;50.20
48734;DHT22;34530;52.084;5.146;2022-09-16T16:12:57;21.10;50.20
48734;DHT22;34530;52.084;5.146;2022-09-16T16:15:26;21.10;50.10
48734;DHT22;34530;52.084;5.146;2022-09-16T16:17:59;21.10;50.00
48734;DHT22;34530;52.084;5.146;2022-09-16T16:20:26;21.10;49.80
48734;DHT22;34530;52.084;5.146;2022-09-16T16:22:51;21.10;50.40
48734;DHT22;34530;52.084;5.146;2022-09-16T16:25:17;21.10;49.60
48734;DHT22;34530;52.084;5.146;2022-09-16T16:27:43;21.10;49.50
48734;DHT22;34530;52.084;5.146;2022-09-16T16:30:09;21.10;49.40
48734;DHT22;34530;52.084;5.146;2022-09-16T16:32:35;21.10;49.40
48734;DHT22;34530;52.084;5.146;2022-09-16T16:35:03;21.10;49.30
48734;DHT22;34530;52.084;5.146;2022-09-16T16:37:29;21.10;49.20
48734;DHT22;34530;52.084;5.146;2022-09-16T16:39:55;21.10;49.20
48734;DHT22;34530;52.084;5.146;2022-09-16T16:42:21;21.10;49.10
48734;DHT22;34530;52.084;5.146;2022-09-16T16:44:48;21.10;49.00
48734;DHT22;34530;52.084;5.146;2022-09-16T16:47:14;21.10;49.00
48734;DHT22;34530;52.084;5.146;2022-09-16T16:49:39;21.10;48.90
48734;DHT22;34530;52.084;5.146;2022-09-16T16:52:05;21.10;48.90
48734;DHT22;34530;52.084;5.146;2022-09-16T16:54:32;21.10;48.90
48734;DHT22;34530;52.084;5.146;2022-09-16T16:56:58;21.10;48.80
48734;DHT22;34530;52.084;5.146;2022-09-16T16:59:25;21.10;48.90
48734;DHT22;34530;52.084;5.146;2022-09-16T17:01:55;21.10;48.90
48734;DHT22;34530;52.084;5.146;2022-09-16T17:04:21;21.10;49.60
48734;DHT22;34530;52.084;5.146;2022-09-16T17:06:47;21.10;49.00
48734;DHT22;34530;52.084;5.146;2022-09-16T17:09:13;21.10;49.10
48734;DHT22;34530;52.084;5.146;2022-09-16T17:11:50;21.10;49.10
48734;DHT22;34530;52.084;5.146;2022-09-16T17:14:16;21.10;49.20
48734;DHT22;34530;52.084;5.146;2022-09-16T17:16:42;21.10;49.30
48734;DHT22;34530;52.084;5.146;2022-09-16T17:19:11;21.10;49.40
48734;DHT22;34530;52.084;5.146;2022-09-16T17:21:37;21.10;49.40
48734;DHT22;34530;52.084;5.146;2022-09-16T17:24:04;21.10;49.40
48734;DHT22;34530;52.084;5.146;2022-09-16T17:26:29;21.10;49.50
48734;DHT22;34530;52.084;5.146;2022-09-16T17:28:55;21.10;49.50
48734;DHT22;34530;52.084;5.146;2022-09-16T17:31:28;21.10;49.50
48734;DHT22;34530;52.084;5.146;2022-09-16T17:33:59;21.10;49.50
48734;DHT22;34530;52.084;5.146;2022-09-16T17:36:28;21.10;49.50
48734;DHT22;34530;52.084;5.146;2022-09-16T17:38:55;21.10;49.60
48734;DHT22;34530;52.084;5.146;2022-09-16T17:41:21;21.10;49.60
48734;DHT22;34530;52.084;5.146;2022-09-16T17:43:47;21.10;49.70
48734;DHT22;34530;52.084;5.146;2022-09-16T17:46:16;21.10;49.60
48734;DHT22;34530;52.084;5.146;2022-09-16T17:48:45;21.10;49.70
48734;DHT22;34530;52.084;5.146;2022-09-16T17:51:11;21.10;49.70
48734;DHT22;34530;52.084;5.146;2022-09-16T17:53:37;21.10;49.70
48734;DHT22;34530;52.084;5.146;2022-09-16T17:56:06;21.10;49.70
48734;DHT22;34530;52.084;5.146;2022-09-16T17:58:32;21.10;49.70
48734;DHT22;34530;52.084;5.146;2022-09-16T18:01:24;21.10;49.70
48734;DHT22;34530;52.084;5.146;2022-09-16T18:03:52;21.10;49.70
48734;DHT22;34530;52.084;5.146;2022-09-16T18:06:21;21.10;49.70
48734;DHT22;34530;52.084;5.146;2022-09-16T18:08:48;21.10;49.70
48734;DHT22;34530;52.084;5.146;2022-09-16T18:11:14;21.10;49.70
48734;DHT22;34530;52.084;5.146;2022-09-16T18:13:40;21.10;49.70
48734;DHT22;34530;52.084;5.146;2022-09-16T18:16:12;21.10;49.70
48734;DHT22;34530;52.084;5.146;2022-09-16T18:18:40;21.10;49.70
48734;DHT22;34530;52.084;5.146;2022-09-16T18:21:09;21.10;49.70
48734;DHT22;34530;52.084;5.146;2022-09-16T18:23:35;21.10;49.80
48734;DHT22;34530;52.084;5.146;2022-09-16T18:26:05;21.10;49.70
48734;DHT22;34530;52.084;5.146;2022-09-16T18:28:35;21.10;49.70
48734;DHT22;34530;52.084;5.146;2022-09-16T18:31:06;21.10;49.60
48734;DHT22;34530;52.084;5.146;2022-09-16T18:33:32;21.10;49.50
48734;DHT22;34530;52.084;5.146;2022-09-16T18:36:02;21.10;49.50
48734;DHT22;34530;52.084;5.146;2022-09-16T18:38:29;21.10;49.40
48734;DHT22;34530;52.084;5.146;2022-09-16T18:43:28;21.10;49.40
48734;DHT22;34530;52.084;5.146;2022-09-16T18:45:54;21.10;49.40
48734;DHT22;34530;52.084;5.146;2022-09-16T18:48:19;21.10;49.30
48734;DHT22;34530;52.084;5.146;2022-09-16T18:50:45;21.10;49.30
48734;DHT22;34530;52.084;5.146;2022-09-16T18:53:11;21.10;49.30
48734;DHT22;34530;52.084;5.146;2022-09-16T18:55:37;21.10;49.20
48734;DHT22;34530;52.084;5.146;2022-09-16T18:58:02;21.10;49.20
48734;DHT22;34530;52.084;5.146;2022-09-16T19:00:28;21.10;49.20
48734;DHT22;34530;52.084;5.146;2022-09-16T19:02:53;21.10;49.20
48734;DHT22;34530;52.084;5.146;2022-09-16T19:05:20;21.10;49.20
48734;DHT22;34530;52.084;5.146;2022-09-16T19:07:45;21.10;49.20
48734;DHT22;34530;52.084;5.146;2022-09-16T19:10:11;21.00;49.10
48734;DHT22;34530;52.084;5.146;2022-09-16T19:12:37;21.00;49.10
48734;DHT22;34530;52.084;5.146;2022-09-16T19:15:03;21.00;49.10